createdAt,value
2018-07-23T00:01:48.805Z,94446.33
2018-07-23T00:04:15.175Z,94451.09
2018-07-23T00:06:41.540Z,94448.19
2018-07-23T00:09:07.924Z,94445.91
2018-07-23T00:11:34.365Z,94443.42
2018-07-23T00:14:00.699Z,94435.08
2018-07-23T00:16:27.068Z,94431.22
2018-07-23T00:18:53.417Z,94430.52
2018-07-23T00:21:19.764Z,94430.56
2018-07-23T00:23:46.130Z,94435.03
2018-07-23T00:26:12.466Z,94430.17
2018-07-23T00:28:38.813Z,94424.52
2018-07-23T00:31:05.169Z,94427.41
2018-07-23T00:33:31.555Z,94426.82
2018-07-23T00:35:57.883Z,94431.23
2018-07-23T00:38:24.249Z,94435.11
2018-07-23T00:40:50.580Z,94436.34
2018-07-23T00:43:16.942Z,94436.97
2018-07-23T00:45:43.292Z,94434.41
2018-07-23T00:48:09.672Z,94429.77
2018-07-23T00:50:35.998Z,94436.63
2018-07-23T00:53:02.333Z,94428.00
2018-07-23T00:55:28.652Z,94424.48
2018-07-23T00:57:55.032Z,94417.48
2018-07-23T01:00:21.393Z,94421.01
2018-07-23T01:02:47.745Z,94426.05
2018-07-23T01:05:14.063Z,94428.97
2018-07-23T01:07:40.420Z,94437.24
2018-07-23T01:10:06.778Z,94439.36
2018-07-23T01:12:33.123Z,94431.72
2018-07-23T01:14:59.439Z,94432.16
2018-07-23T01:17:25.807Z,94438.58
2018-07-23T01:19:52.168Z,94438.61
2018-07-23T01:22:18.639Z,94431.84
2018-07-23T01:24:44.965Z,94432.59
2018-07-23T01:27:11.547Z,94431.24
2018-07-23T01:29:37.938Z,94433.48
2018-07-23T01:32:04.274Z,94429.70
2018-07-23T01:34:30.602Z,94431.43
2018-07-23T01:36:57.021Z,94432.41
2018-07-23T01:39:23.494Z,94429.01
2018-07-23T01:41:49.860Z,94433.06
2018-07-23T01:44:16.222Z,94429.04
2018-07-23T01:46:42.589Z,94429.70
2018-07-23T01:49:09.031Z,94427.93
2018-07-23T01:51:35.382Z,94426.70
2018-07-23T01:54:01.795Z,94426.52
2018-07-23T01:56:28.164Z,94429.85
2018-07-23T01:58:54.651Z,94424.44
2018-07-23T02:01:21.058Z,94419.69
2018-07-23T02:03:47.384Z,94419.83
2018-07-23T02:06:13.744Z,94417.85
2018-07-23T02:08:40.095Z,94414.45
2018-07-23T02:11:06.480Z,94416.34
2018-07-23T02:13:32.918Z,94419.02
2018-07-23T02:15:59.328Z,94422.80
2018-07-23T02:18:25.707Z,94428.33
2018-07-23T02:20:52.110Z,94430.27
2018-07-23T02:23:18.535Z,94432.92
2018-07-23T02:25:44.883Z,94431.63
2018-07-23T02:28:11.305Z,94430.20
2018-07-23T02:30:37.734Z,94433.81
2018-07-23T02:33:04.062Z,94426.46
2018-07-23T02:35:30.446Z,94424.57
2018-07-23T02:37:56.861Z,94420.69
2018-07-23T02:40:23.240Z,94422.61
2018-07-23T02:42:49.691Z,94419.56
2018-07-23T02:45:16.030Z,94427.98
2018-07-23T02:47:42.439Z,94430.41
2018-07-23T02:50:08.836Z,94423.98
2018-07-23T02:52:35.158Z,94428.50
2018-07-23T02:55:01.503Z,94421.59
2018-07-23T02:57:27.864Z,94417.11
2018-07-23T02:59:54.343Z,94418.15
2018-07-23T03:02:20.729Z,94417.47
2018-07-23T03:04:47.066Z,94416.23
2018-07-23T03:07:13.493Z,94412.66
2018-07-23T03:09:39.926Z,94417.41
2018-07-23T03:12:06.517Z,94419.77
2018-07-23T03:14:32.859Z,94419.03
2018-07-23T03:16:59.188Z,94418.00
2018-07-23T03:19:25.537Z,94417.73
2018-07-23T03:21:52.290Z,94417.94
2018-07-23T03:24:18.694Z,94420.38
2018-07-23T03:26:45.053Z,94409.52
2018-07-23T03:29:11.401Z,94408.09
2018-07-23T03:31:37.825Z,94400.88
2018-07-23T03:34:04.281Z,94403.27
2018-07-23T03:36:30.654Z,94400.83
2018-07-23T03:38:57.032Z,94401.02
2018-07-23T03:41:23.362Z,94394.07
2018-07-23T03:43:49.699Z,94393.85
2018-07-23T03:46:16.058Z,94397.00
2018-07-23T03:48:42.476Z,94397.63
2018-07-23T03:51:08.824Z,94401.91
2018-07-23T03:53:35.188Z,94405.05
2018-07-23T03:56:01.588Z,94405.19
2018-07-23T03:58:27.929Z,94396.12
2018-07-23T04:00:54.422Z,94398.29
2018-07-23T04:03:20.862Z,94396.44
2018-07-23T04:05:47.176Z,94401.25
2018-07-23T04:08:13.529Z,94405.84
2018-07-23T04:10:39.898Z,94411.76
2018-07-23T04:13:06.244Z,94413.14
2018-07-23T04:15:32.599Z,94420.00
2018-07-23T04:17:58.935Z,94424.50
2018-07-23T04:20:25.313Z,94421.73
2018-07-23T04:22:51.678Z,94422.83
2018-07-23T04:25:18.062Z,94420.88
2018-07-23T04:27:44.469Z,94413.72
2018-07-23T04:30:10.858Z,94413.03
2018-07-23T04:32:37.200Z,94409.78
2018-07-23T04:35:03.604Z,94408.92
2018-07-23T04:37:29.982Z,94411.48
2018-07-23T04:39:56.349Z,94413.11
2018-07-23T04:42:22.744Z,94406.44
2018-07-23T04:44:49.112Z,94407.13
2018-07-23T04:47:15.446Z,94403.91
2018-07-23T04:49:41.836Z,94405.84
2018-07-23T04:52:08.171Z,94402.27
2018-07-23T04:54:34.519Z,94404.02
2018-07-23T04:57:01.065Z,94401.80
2018-07-23T04:59:27.407Z,94398.11
2018-07-23T05:01:53.774Z,94390.82
2018-07-23T05:04:20.170Z,94381.24
2018-07-23T05:06:46.606Z,94375.13
2018-07-23T05:09:12.970Z,94375.91
2018-07-23T05:11:39.364Z,94378.25
2018-07-23T05:14:05.736Z,94371.21
2018-07-23T05:16:32.058Z,94369.39
2018-07-23T05:18:58.571Z,94368.33
2018-07-23T05:21:24.993Z,94369.49
2018-07-23T05:23:51.379Z,94368.09
2018-07-23T05:26:17.718Z,94361.98
2018-07-23T05:28:44.088Z,94365.03
2018-07-23T05:31:10.465Z,94364.84
2018-07-23T05:33:36.796Z,94374.12
2018-07-23T05:36:03.216Z,94378.17
2018-07-23T05:38:29.663Z,94379.01
2018-07-23T05:40:56.013Z,94385.98
2018-07-23T05:43:22.386Z,94380.23
2018-07-23T05:45:48.748Z,94381.19
2018-07-23T05:48:15.093Z,94377.70
2018-07-23T05:50:41.477Z,94364.81
2018-07-23T05:53:07.840Z,94366.63
2018-07-23T05:55:34.167Z,94372.19
2018-07-23T05:58:00.519Z,94366.45
2018-07-23T06:00:26.960Z,94365.98
2018-07-23T06:02:53.350Z,94367.77
2018-07-23T06:05:19.666Z,94370.45
2018-07-23T06:07:46.005Z,94367.30
2018-07-23T06:10:12.421Z,94370.22
2018-07-23T06:12:38.803Z,94369.78
2018-07-23T06:15:05.206Z,94371.38
2018-07-23T06:17:31.555Z,94378.91
2018-07-23T06:19:57.892Z,94377.59
2018-07-23T06:22:24.217Z,94371.81
2018-07-23T06:24:50.585Z,94372.83
2018-07-23T06:27:16.922Z,94377.66
2018-07-23T06:29:43.288Z,94376.13
2018-07-23T06:32:09.644Z,94368.69
2018-07-23T06:34:36.001Z,94364.05
2018-07-23T06:37:02.333Z,94364.14
2018-07-23T06:39:28.738Z,94366.06
2018-07-23T06:41:55.141Z,94362.89
2018-07-23T06:44:23.062Z,94364.45
2018-07-23T06:46:49.439Z,94359.86
2018-07-23T06:49:15.806Z,94361.77
2018-07-23T06:51:42.135Z,94362.39
2018-07-23T06:54:08.591Z,94359.39
2018-07-23T06:56:34.954Z,94355.64
2018-07-23T06:59:01.332Z,94350.67
2018-07-23T07:01:27.749Z,94349.86
2018-07-23T07:03:54.134Z,94352.34
2018-07-23T07:06:20.726Z,94354.27
2018-07-23T07:08:47.080Z,94348.20
2018-07-23T07:11:13.549Z,94343.27
2018-07-23T07:13:39.964Z,94343.88
2018-07-23T07:16:06.365Z,94347.06
2018-07-23T07:18:32.690Z,94345.36
2018-07-23T07:20:59.092Z,94350.54
2018-07-23T07:23:25.550Z,94349.01
2018-07-23T07:25:52.000Z,94355.09
2018-07-23T07:28:18.339Z,94345.60
2018-07-23T07:30:44.751Z,94346.44
2018-07-23T07:33:11.139Z,94345.86
2018-07-23T07:35:37.501Z,94333.95
2018-07-23T07:38:03.934Z,94331.80
2018-07-23T07:40:30.341Z,94331.02
2018-07-23T07:42:56.688Z,94329.08
2018-07-23T07:45:23.076Z,94328.09
2018-07-23T07:47:49.633Z,94327.00
2018-07-23T07:50:16.009Z,94323.10
2018-07-23T07:52:42.349Z,94326.91
2018-07-23T07:55:08.690Z,94320.25
2018-07-23T07:57:35.058Z,94311.95
2018-07-23T08:00:01.423Z,94316.64
2018-07-23T08:02:27.764Z,94314.70
2018-07-23T08:04:54.094Z,94313.17
2018-07-23T08:07:20.570Z,94309.77
2018-07-23T08:09:46.935Z,94298.05
2018-07-23T08:12:14.061Z,94303.45
2018-07-23T08:14:40.443Z,94301.52
2018-07-23T08:17:06.813Z,94297.88
2018-07-23T08:19:33.268Z,94289.80
2018-07-23T08:21:59.624Z,94286.28
2018-07-23T08:24:25.967Z,94290.36
2018-07-23T08:26:52.349Z,94284.91
2018-07-23T08:29:18.725Z,94293.13
2018-07-23T08:31:45.213Z,94288.02
2018-07-23T08:34:11.587Z,94286.88
2018-07-23T08:36:37.940Z,94282.80
2018-07-23T08:39:04.297Z,94280.55
2018-07-23T08:41:31.019Z,94278.63
2018-07-23T08:43:57.371Z,94273.48
2018-07-23T08:46:23.825Z,94273.89
2018-07-23T08:48:50.167Z,94274.31
2018-07-23T08:51:16.549Z,94276.17
2018-07-23T08:53:42.920Z,94269.30
2018-07-23T08:56:09.296Z,94258.92
2018-07-23T08:58:35.652Z,94255.59
2018-07-23T09:01:02.010Z,94254.62
2018-07-23T09:03:28.442Z,94250.98
2018-07-23T09:05:54.802Z,94254.29
2018-07-23T09:08:21.177Z,94252.91
2018-07-23T09:10:47.520Z,94245.38
2018-07-23T09:13:13.869Z,94237.86
2018-07-23T09:15:40.249Z,94235.50
2018-07-23T09:18:06.669Z,94234.50
2018-07-23T09:20:33.014Z,94224.48
2018-07-23T09:22:59.442Z,94222.76
2018-07-23T09:25:25.852Z,94219.70
2018-07-23T09:27:52.259Z,94216.95
2018-07-23T09:30:18.660Z,94218.02
2018-07-23T09:32:45.023Z,94214.30
2018-07-23T09:35:11.448Z,94212.34
2018-07-23T09:37:37.811Z,94210.86
2018-07-23T09:40:04.172Z,94209.16
2018-07-23T09:42:30.569Z,94211.62
2018-07-23T09:44:56.982Z,94204.18
2018-07-23T09:47:23.372Z,94186.77
2018-07-23T09:49:49.727Z,94183.63
2018-07-23T09:52:16.126Z,94183.91
2018-07-23T09:54:42.506Z,94183.67
2018-07-23T09:57:08.830Z,94187.53
2018-07-23T09:59:35.209Z,94184.06
2018-07-23T10:02:01.581Z,94181.38
2018-07-23T10:04:27.950Z,94179.59
2018-07-23T10:06:54.292Z,94174.70
2018-07-23T10:09:20.757Z,94176.05
2018-07-23T10:11:47.189Z,94189.38
2018-07-23T10:14:13.659Z,94188.77
2018-07-23T10:16:39.986Z,94188.02
2018-07-23T10:19:06.424Z,94187.80
2018-07-23T10:21:32.945Z,94189.17
2018-07-23T10:23:59.328Z,94194.34
2018-07-23T10:26:25.724Z,94193.70
2018-07-23T10:28:52.078Z,94192.39
2018-07-23T10:31:18.476Z,94180.27
2018-07-23T10:33:44.985Z,94171.70
2018-07-23T10:36:11.633Z,94173.13
2018-07-23T10:38:38.093Z,94174.58
2018-07-23T10:41:04.459Z,94177.20
2018-07-23T10:43:30.943Z,94154.85
2018-07-23T10:45:57.308Z,94169.41
2018-07-23T10:48:23.643Z,94169.00
2018-07-23T10:50:49.993Z,94169.87
2018-07-23T10:53:16.434Z,94169.81
2018-07-23T10:55:42.797Z,94166.98
2018-07-23T10:58:09.199Z,94161.95
2018-07-23T11:00:35.990Z,94165.28
2018-07-23T11:03:02.411Z,94162.78
2018-07-23T11:05:28.845Z,94158.17
2018-07-23T11:07:55.296Z,94156.88
2018-07-23T11:10:21.717Z,94153.03
2018-07-23T11:12:48.168Z,94144.44
2018-07-23T11:15:14.505Z,94138.16
2018-07-23T11:17:41.381Z,94124.34
2018-07-23T11:20:07.740Z,94122.58
2018-07-23T11:22:34.111Z,94125.38
2018-07-23T11:25:37.950Z,94126.67
2018-07-23T11:27:26.868Z,94126.36
2018-07-23T11:29:53.237Z,94114.71
2018-07-23T11:32:19.575Z,94121.41
2018-07-23T11:34:45.923Z,94112.92
2018-07-23T11:37:12.270Z,94104.59
2018-07-23T11:39:38.820Z,94105.07
2018-07-23T11:42:05.187Z,94102.47
2018-07-23T11:44:31.516Z,94102.40
2018-07-23T11:46:58.013Z,94107.83
2018-07-23T11:49:24.530Z,94118.17
2018-07-23T11:51:50.962Z,94111.63
2018-07-23T11:54:17.362Z,94105.88
2018-07-23T11:56:43.870Z,94104.58
2018-07-23T11:59:10.394Z,94104.20
2018-07-23T12:01:36.716Z,94103.38
2018-07-23T12:04:03.111Z,94109.52
2018-07-23T12:06:29.545Z,94112.20
2018-07-23T12:08:55.951Z,94117.20
2018-07-23T12:11:22.285Z,94126.44
2018-07-23T12:13:48.704Z,94126.36
2018-07-23T12:16:15.102Z,94126.00
2018-07-23T12:18:41.456Z,94126.73
2018-07-23T12:21:07.935Z,94118.64
2018-07-23T12:23:34.407Z,94129.27
2018-07-23T12:26:00.832Z,94129.09
2018-07-23T12:28:27.228Z,94118.33
2018-07-23T12:30:53.584Z,94128.12
2018-07-23T12:33:19.963Z,94130.41
2018-07-23T12:35:46.295Z,94138.66
2018-07-23T12:38:12.689Z,94136.85
2018-07-23T12:40:39.060Z,94132.48
2018-07-23T12:43:05.419Z,94127.23
2018-07-23T12:45:31.821Z,94118.57
2018-07-23T12:47:58.173Z,94109.59
2018-07-23T12:50:24.585Z,94095.83
2018-07-23T12:52:50.941Z,94104.30
2018-07-23T12:55:17.316Z,94102.94
2018-07-23T12:57:43.817Z,94104.70
2018-07-23T13:00:10.178Z,94108.50
2018-07-23T13:02:36.883Z,94100.92
2018-07-23T13:05:03.366Z,94096.56
2018-07-23T13:07:29.717Z,94092.25
2018-07-23T13:09:56.095Z,94092.02
2018-07-23T13:12:22.467Z,94093.73
2018-07-23T13:14:48.800Z,94095.52
2018-07-23T13:17:15.187Z,94100.27
2018-07-23T13:19:41.528Z,94096.74
2018-07-23T13:22:07.892Z,94090.96
2018-07-23T13:24:34.301Z,94085.07
2018-07-23T13:27:00.692Z,94083.80
2018-07-23T13:29:27.047Z,94077.05
2018-07-23T13:31:53.450Z,94078.11
2018-07-23T13:34:19.817Z,94078.84
2018-07-23T13:36:46.181Z,94084.02
2018-07-23T13:39:12.551Z,94100.69
2018-07-23T13:41:38.903Z,94110.06
2018-07-23T13:44:05.324Z,94115.58
2018-07-23T13:46:31.714Z,94106.77
2018-07-23T13:48:58.071Z,94103.61
2018-07-23T13:51:24.528Z,94121.24
2018-07-23T13:53:50.967Z,94117.36
2018-07-23T13:56:17.284Z,94121.89
2018-07-23T13:58:43.624Z,94116.47
2018-07-23T14:01:10.016Z,94117.36
2018-07-23T14:03:36.358Z,94118.23
2018-07-23T14:06:02.718Z,94128.05
2018-07-23T14:08:29.040Z,94139.59
2018-07-23T14:10:55.431Z,94128.92
2018-07-23T14:13:21.774Z,94136.53
2018-07-23T14:15:48.162Z,94147.49
2018-07-23T14:18:14.487Z,94153.67
2018-07-23T14:20:40.923Z,94166.69
2018-07-23T14:23:07.271Z,94175.47
2018-07-23T14:25:33.684Z,94209.91
2018-07-23T14:28:00.022Z,94217.20
2018-07-23T14:30:26.446Z,94208.18
2018-07-23T14:32:52.828Z,94204.05
2018-07-23T14:35:19.172Z,94198.48
2018-07-23T14:37:45.521Z,94191.94
2018-07-23T14:40:11.912Z,94189.66
2018-07-23T14:42:38.285Z,94185.31
2018-07-23T14:45:04.636Z,94178.91
2018-07-23T14:47:31.006Z,94169.49
2018-07-23T14:49:57.447Z,94153.98
2018-07-23T14:52:23.837Z,94151.55
2018-07-23T14:54:50.203Z,94149.72
2018-07-23T14:57:16.535Z,94143.82
2018-07-23T14:59:42.857Z,94142.10
2018-07-23T15:02:09.230Z,94145.42
2018-07-23T15:04:35.621Z,94135.79
2018-07-23T15:07:01.954Z,94134.91
2018-07-23T15:09:28.312Z,94127.95
2018-07-23T15:11:54.658Z,94121.95
2018-07-23T15:14:20.986Z,94125.66
2018-07-23T15:16:47.471Z,94116.52
2018-07-23T15:19:13.825Z,94136.75
2018-07-23T15:21:40.216Z,94131.55
2018-07-23T15:24:06.588Z,94136.57
2018-07-23T15:26:32.962Z,94147.20
2018-07-23T15:28:59.295Z,94140.64
2018-07-23T15:31:25.651Z,94131.59
2018-07-23T15:33:52.031Z,94126.55
2018-07-23T15:36:18.379Z,94129.80
2018-07-23T15:38:44.729Z,94137.91
2018-07-23T15:41:11.059Z,94129.30
2018-07-23T15:43:37.405Z,94125.01
2018-07-23T15:46:03.851Z,94124.69
2018-07-23T15:48:30.164Z,94125.48
2018-07-23T15:50:56.576Z,94125.84
2018-07-23T15:53:23.043Z,94127.34
2018-07-23T15:55:49.431Z,94126.17
2018-07-23T15:58:15.847Z,94122.58
2018-07-23T16:00:42.233Z,94133.51
2018-07-23T16:03:08.562Z,94123.55
2018-07-23T16:05:34.892Z,94130.47
2018-07-23T16:08:01.291Z,94126.86
2018-07-23T16:10:27.651Z,94127.55
2018-07-23T16:12:54.058Z,94127.95
2018-07-23T16:15:20.379Z,94123.21
2018-07-23T16:17:46.744Z,94122.64
2018-07-23T16:20:13.110Z,94127.77
2018-07-23T16:22:39.516Z,94136.98
2018-07-23T16:25:05.846Z,94134.78
2018-07-23T16:27:32.353Z,94136.69
2018-07-23T16:29:58.708Z,94137.37
2018-07-23T16:32:25.139Z,94141.80
2018-07-23T16:34:51.470Z,94138.44
2018-07-23T16:37:17.845Z,94139.95
2018-07-23T16:39:44.245Z,94137.39
2018-07-23T16:42:10.630Z,94135.07
2018-07-23T16:44:36.964Z,94143.94
2018-07-23T16:47:03.346Z,94150.34
2018-07-23T16:49:29.878Z,94136.70
2018-07-23T16:51:56.210Z,94136.84
2018-07-23T16:54:22.535Z,94136.27
2018-07-23T16:56:48.894Z,94139.73
2018-07-23T16:59:15.263Z,94146.34
2018-07-23T17:01:41.670Z,94141.92
2018-07-23T17:04:07.995Z,94133.76
2018-07-23T17:06:34.384Z,94132.84
2018-07-23T17:09:00.748Z,94133.31
2018-07-23T17:11:27.115Z,94140.83
2018-07-23T17:13:53.444Z,94152.77
2018-07-23T17:16:19.807Z,94158.81
2018-07-23T17:18:46.343Z,94149.97
2018-07-23T17:21:12.741Z,94155.17
2018-07-23T17:23:39.075Z,94154.36
2018-07-23T17:26:05.445Z,94161.84
2018-07-23T17:28:31.771Z,94152.16
2018-07-23T17:30:58.168Z,94153.47
2018-07-23T17:33:24.567Z,94166.56
2018-07-23T17:35:50.899Z,94166.44
2018-07-23T17:38:17.246Z,94168.20
2018-07-23T17:40:43.620Z,94167.28
2018-07-23T17:43:09.940Z,94172.31
2018-07-23T17:45:36.306Z,94172.66
2018-07-23T17:48:02.658Z,94170.07
2018-07-23T17:50:29.006Z,94169.97
2018-07-23T17:52:55.352Z,94171.19
2018-07-23T17:55:21.729Z,94169.86
2018-07-23T17:57:48.297Z,94168.50
2018-07-23T18:00:14.642Z,94178.73
2018-07-23T18:02:41.058Z,94188.05
2018-07-23T18:05:07.445Z,94198.83
2018-07-23T18:07:33.805Z,94205.54
2018-07-23T18:10:00.242Z,94210.84
2018-07-23T18:12:26.589Z,94215.47
2018-07-23T18:14:52.935Z,94217.84
2018-07-23T18:17:19.278Z,94220.38
2018-07-23T18:19:45.679Z,94224.95
2018-07-23T18:22:12.088Z,94228.25
2018-07-23T18:24:38.441Z,94232.56
2018-07-23T18:27:04.818Z,94241.63
2018-07-23T18:29:31.150Z,94239.95
2018-07-23T18:31:57.492Z,94246.42
2018-07-23T18:34:23.845Z,94251.89
2018-07-23T18:36:50.180Z,94255.19
2018-07-23T18:39:16.584Z,94256.63
2018-07-23T18:41:42.916Z,94253.93
2018-07-23T18:44:09.308Z,94252.39
2018-07-23T18:46:35.693Z,94257.53
2018-07-23T18:49:02.018Z,94254.94
2018-07-23T18:51:28.350Z,94255.48
2018-07-23T18:53:54.721Z,94248.66
2018-07-23T18:56:21.206Z,94248.41
2018-07-23T18:58:47.746Z,94247.88
2018-07-23T19:01:14.109Z,94245.39
2018-07-23T19:03:40.500Z,94248.03
2018-07-23T19:06:06.918Z,94249.27
2018-07-23T19:08:33.295Z,94247.28
2018-07-23T19:10:59.652Z,94249.05
2018-07-23T19:13:26.010Z,94244.39
2018-07-23T19:15:52.400Z,94248.61
2018-07-23T19:18:18.744Z,94250.85
2018-07-23T19:20:45.183Z,94252.93
2018-07-23T19:23:11.526Z,94256.97
2018-07-23T19:25:37.854Z,94256.32
2018-07-23T19:28:04.235Z,94258.28
2018-07-23T19:30:30.619Z,94260.19
2018-07-23T19:32:57.032Z,94263.06
2018-07-23T19:35:23.425Z,94260.45
2018-07-23T19:37:49.774Z,94255.20
2018-07-23T19:40:16.097Z,94255.13
2018-07-23T19:42:42.434Z,94250.14
2018-07-23T19:45:08.803Z,94256.66
2018-07-23T19:47:35.208Z,94250.22
2018-07-23T19:50:01.532Z,94250.16
2018-07-23T19:52:27.911Z,94251.63
2018-07-23T19:54:54.230Z,94248.23
2018-07-23T19:57:20.593Z,94249.09
2018-07-23T19:59:46.917Z,94244.16
2018-07-23T20:02:13.294Z,94243.67
2018-07-23T20:04:39.633Z,94250.42
2018-07-23T20:07:05.989Z,94243.62
2018-07-23T20:09:32.457Z,94243.09
2018-07-23T20:11:58.786Z,94232.58
2018-07-23T20:14:25.171Z,94231.05
2018-07-23T20:16:51.521Z,94224.20
2018-07-23T20:19:17.897Z,94225.73
2018-07-23T20:21:44.208Z,94216.21
2018-07-23T20:24:11.285Z,94210.36
2018-07-23T20:26:37.648Z,94208.59
2018-07-23T20:29:04.102Z,94211.07
2018-07-23T20:31:30.421Z,94201.31
2018-07-23T20:33:56.782Z,94200.63
2018-07-23T20:36:23.121Z,94201.04
2018-07-23T20:38:49.553Z,94192.77
2018-07-23T20:41:15.859Z,94198.65
2018-07-23T20:43:42.198Z,94198.11
2018-07-23T20:46:08.568Z,94191.13
2018-07-23T20:48:34.890Z,94189.84
2018-07-23T20:51:01.229Z,94185.80
2018-07-23T20:53:27.556Z,94186.67
2018-07-23T20:55:53.933Z,94192.45
2018-07-23T20:58:20.255Z,94199.04
2018-07-23T21:00:46.594Z,94201.01
2018-07-23T21:03:12.938Z,94203.80
2018-07-23T21:05:39.295Z,94205.16
2018-07-23T21:08:05.616Z,94202.80
2018-07-23T21:10:32.053Z,94194.41
2018-07-23T21:12:58.450Z,94191.41
2018-07-23T21:15:24.797Z,94193.59
2018-07-23T21:17:51.153Z,94196.30
2018-07-23T21:20:17.471Z,94194.48
2018-07-23T21:22:43.841Z,94194.53
2018-07-23T21:25:10.205Z,94196.95
2018-07-23T21:27:37.229Z,94199.34
2018-07-23T21:30:03.590Z,94204.86
2018-07-23T21:32:30.068Z,94201.11
2018-07-23T21:34:56.388Z,94204.39
2018-07-23T21:37:22.718Z,94208.45
2018-07-23T21:39:49.053Z,94202.13
2018-07-23T21:42:15.407Z,94202.19
2018-07-23T21:44:41.747Z,94200.36
2018-07-23T21:47:08.108Z,94197.66
2018-07-23T21:49:34.422Z,94191.44
2018-07-23T21:52:00.730Z,94188.16
2018-07-23T21:54:27.053Z,94188.29
2018-07-23T21:56:53.424Z,94185.87
2018-07-23T21:59:19.866Z,94179.44
2018-07-23T22:01:46.223Z,94184.53
2018-07-23T22:04:12.541Z,94188.75
2018-07-23T22:06:38.873Z,94188.88
2018-07-23T22:09:05.203Z,94190.92
2018-07-23T22:11:31.766Z,94189.84
2018-07-23T22:13:58.091Z,94186.67
2018-07-23T22:16:24.467Z,94190.08
2018-07-23T22:18:50.826Z,94182.36
2018-07-23T22:21:17.140Z,94187.41
2018-07-23T22:23:43.500Z,94188.45
2018-07-23T22:26:09.834Z,94180.89
2018-07-23T22:28:36.264Z,94186.17
2018-07-23T22:31:02.581Z,94179.03
2018-07-23T22:33:28.901Z,94185.55
2018-07-23T22:35:55.215Z,94186.48
2018-07-23T22:38:21.583Z,94181.84
2018-07-23T22:40:48.022Z,94178.69
2018-07-23T22:43:14.387Z,94179.80
2018-07-23T22:45:40.748Z,94180.21
2018-07-23T22:48:07.106Z,94180.08
2018-07-23T22:50:33.442Z,94179.69
2018-07-23T22:52:59.787Z,94176.91
2018-07-23T22:55:26.157Z,94173.58
2018-07-23T22:57:52.479Z,94174.22
2018-07-23T23:00:18.934Z,94174.05
2018-07-23T23:02:45.301Z,94172.05
2018-07-23T23:05:11.698Z,94162.20
2018-07-23T23:07:38.071Z,94157.91
2018-07-23T23:10:04.398Z,94162.55
2018-07-23T23:12:30.735Z,94162.09
2018-07-23T23:14:57.051Z,94161.08
2018-07-23T23:17:23.418Z,94160.92
2018-07-23T23:19:49.757Z,94163.66
2018-07-23T23:22:16.118Z,94159.80
2018-07-23T23:24:42.434Z,94160.33
2018-07-23T23:27:08.805Z,94163.84
2018-07-23T23:29:35.118Z,94162.84
2018-07-23T23:32:01.452Z,94162.16
2018-07-23T23:34:27.771Z,94159.92
2018-07-23T23:36:54.159Z,94158.39
2018-07-23T23:39:20.478Z,94154.06
2018-07-23T23:41:46.905Z,94148.79
2018-07-23T23:44:13.233Z,94149.02
2018-07-23T23:46:39.584Z,94147.73
2018-07-23T23:49:05.941Z,94149.49
2018-07-23T23:51:32.273Z,94143.58
2018-07-23T23:53:58.623Z,94148.50
2018-07-23T23:56:24.979Z,94145.92
2018-07-23T23:58:51.337Z,94144.49
